createdAt,value
2018-11-02T00:01:20.119Z,54.90
2018-11-02T00:03:48.320Z,55.20
2018-11-02T00:06:16.570Z,55.00
2018-11-02T00:08:44.863Z,55.30
2018-11-02T00:11:13.089Z,55.40
2018-11-02T00:13:41.676Z,55.90
2018-11-02T00:16:10.049Z,56.20
2018-11-02T00:18:38.260Z,56.50
2018-11-02T00:21:06.517Z,56.70
2018-11-02T00:23:34.772Z,57.00
2018-11-02T00:26:03.109Z,57.10
2018-11-02T00:28:31.393Z,57.30
2018-11-02T00:30:59.669Z,57.20
2018-11-02T00:33:27.830Z,57.20
2018-11-02T00:35:56.053Z,57.20
2018-11-02T00:38:24.281Z,57.30
2018-11-02T00:40:52.479Z,56.90
2018-11-02T00:43:20.763Z,56.60
2018-11-02T00:45:49.077Z,56.50
2018-11-02T00:48:17.307Z,57.00
2018-11-02T00:50:45.535Z,57.00
2018-11-02T00:53:13.812Z,57.10
2018-11-02T00:55:42.043Z,57.30
2018-11-02T00:58:10.344Z,57.30
2018-11-02T01:00:38.579Z,57.30
2018-11-02T01:03:06.820Z,57.30
2018-11-02T01:05:35.103Z,56.70
2018-11-02T01:08:03.408Z,56.80
2018-11-02T01:10:31.621Z,56.80
2018-11-02T01:13:00.271Z,56.70
2018-11-02T01:15:28.457Z,56.70
2018-11-02T01:17:56.648Z,56.80
2018-11-02T01:20:25.314Z,56.10
2018-11-02T01:22:53.640Z,55.40
2018-11-02T01:25:21.868Z,54.80
2018-11-02T01:27:50.127Z,54.40
2018-11-02T01:30:18.415Z,54.80
2018-11-02T01:32:46.635Z,55.10
2018-11-02T01:35:14.834Z,55.10
2018-11-02T01:37:43.029Z,55.40
2018-11-02T01:40:11.262Z,56.30
2018-11-02T01:42:39.439Z,56.00
2018-11-02T01:45:08.009Z,54.90
2018-11-02T01:47:36.272Z,54.50
2018-11-02T01:50:05.259Z,54.40
2018-11-02T01:52:33.499Z,54.80
2018-11-02T01:55:02.660Z,55.10
2018-11-02T01:57:30.881Z,55.20
2018-11-02T01:59:59.125Z,55.50
2018-11-02T02:02:27.342Z,55.80
2018-11-02T02:04:55.571Z,56.10
2018-11-02T02:07:23.923Z,56.20
2018-11-02T02:09:52.253Z,56.50
2018-11-02T02:12:20.716Z,56.60
2018-11-02T02:14:48.928Z,56.90
2018-11-02T02:17:17.115Z,57.80
2018-11-02T02:19:45.447Z,57.80
2018-11-02T02:22:13.672Z,57.20
2018-11-02T02:24:41.912Z,57.10
2018-11-02T02:27:10.104Z,57.00
2018-11-02T02:29:38.351Z,57.00
2018-11-02T02:32:06.640Z,57.00
2018-11-02T02:34:34.881Z,56.30
2018-11-02T02:37:03.207Z,56.50
2018-11-02T02:39:31.408Z,57.00
2018-11-02T02:41:59.672Z,57.00
2018-11-02T02:44:27.858Z,56.90
2018-11-02T02:46:56.051Z,56.60
2018-11-02T02:49:24.606Z,56.10
2018-11-02T02:51:52.829Z,56.30
2018-11-02T02:54:21.060Z,55.80
2018-11-02T02:56:49.384Z,56.20
2018-11-02T02:59:17.593Z,56.90
2018-11-02T03:01:45.830Z,57.20
2018-11-02T03:04:14.040Z,57.20
2018-11-02T03:06:42.216Z,57.20
2018-11-02T03:09:10.422Z,56.80
2018-11-02T03:11:38.620Z,56.60
2018-11-02T03:14:06.899Z,56.70
2018-11-02T03:16:35.077Z,56.70
2018-11-02T03:19:04.562Z,56.50
2018-11-02T03:21:32.725Z,56.30
2018-11-02T03:24:00.976Z,56.50
2018-11-02T03:26:29.213Z,56.40
2018-11-02T03:28:57.479Z,56.50
2018-11-02T03:31:25.789Z,56.80
2018-11-02T03:33:54.023Z,57.20
2018-11-02T03:36:22.460Z,57.30
2018-11-02T03:38:50.700Z,57.90
2018-11-02T03:41:18.893Z,58.30
2018-11-02T03:43:48.342Z,58.30
2018-11-02T03:46:16.535Z,57.40
2018-11-02T03:48:44.728Z,57.30
2018-11-02T03:51:13.303Z,57.70
2018-11-02T03:53:41.529Z,57.40
2018-11-02T03:56:09.938Z,58.00
2018-11-02T03:58:38.199Z,58.90
2018-11-02T04:01:06.501Z,58.00
2018-11-02T04:03:34.713Z,58.00
2018-11-02T04:06:03.188Z,58.30
2018-11-02T04:08:31.396Z,57.10
2018-11-02T04:10:59.586Z,57.40
2018-11-02T04:13:27.880Z,57.40
2018-11-02T04:15:56.192Z,58.40
2018-11-02T04:18:24.392Z,58.60
2018-11-02T04:20:52.856Z,58.20
2018-11-02T04:23:21.233Z,58.50
2018-11-02T04:25:49.412Z,58.80
2018-11-02T04:28:17.596Z,59.20
2018-11-02T04:30:45.896Z,59.20
2018-11-02T04:33:14.028Z,59.00
2018-11-02T04:35:42.219Z,58.90
2018-11-02T04:38:10.439Z,58.90
2018-11-02T04:40:38.659Z,59.10
2018-11-02T04:43:07.412Z,57.90
2018-11-02T04:45:37.596Z,57.80
2018-11-02T04:48:07.485Z,58.60
2018-11-02T04:50:35.833Z,59.20
2018-11-02T04:53:04.452Z,59.40
2018-11-02T04:55:33.721Z,59.50
2018-11-02T04:58:02.025Z,60.10
2018-11-02T05:00:30.694Z,59.80
2018-11-02T05:02:59.066Z,60.10
2018-11-02T05:05:27.544Z,60.40
2018-11-02T05:07:55.752Z,60.10
2018-11-02T05:10:24.002Z,60.10
2018-11-02T05:12:52.304Z,60.40
2018-11-02T05:15:20.493Z,60.70
2018-11-02T05:17:48.729Z,61.10
2018-11-02T05:20:16.911Z,61.40
2018-11-02T05:22:45.394Z,61.70
2018-11-02T05:25:13.609Z,62.20
2018-11-02T05:27:41.808Z,62.20
2018-11-02T05:30:10.737Z,62.80
2018-11-02T05:32:39.317Z,63.10
2018-11-02T05:35:07.692Z,63.60
2018-11-02T05:37:35.902Z,63.90
2018-11-02T05:40:05.415Z,63.80
2018-11-02T05:42:33.638Z,63.80
2018-11-02T05:45:01.916Z,64.00
2018-11-02T05:47:30.349Z,64.20
2018-11-02T05:49:58.428Z,64.40
2018-11-02T05:52:26.667Z,64.60
2018-11-02T05:54:55.233Z,64.80
2018-11-02T05:57:23.460Z,64.40
2018-11-02T05:59:51.658Z,64.10
2018-11-02T06:02:19.867Z,64.00
2018-11-02T06:04:48.096Z,63.70
2018-11-02T06:07:16.344Z,64.50
2018-11-02T06:09:44.590Z,63.50
2018-11-02T06:12:13.283Z,63.50
2018-11-02T06:14:41.510Z,63.20
2018-11-02T06:17:09.767Z,63.10
2018-11-02T06:19:37.992Z,63.20
2018-11-02T06:22:06.257Z,63.30
2018-11-02T06:24:34.497Z,63.30
2018-11-02T06:27:03.220Z,63.60
2018-11-02T06:29:31.823Z,64.00
2018-11-02T06:32:00.083Z,64.00
2018-11-02T06:34:28.313Z,64.20
2018-11-02T06:36:56.789Z,64.40
2018-11-02T06:39:25.008Z,64.10
2018-11-02T06:41:53.223Z,64.30
2018-11-02T06:44:21.480Z,64.40
2018-11-02T06:46:49.735Z,64.10
2018-11-02T06:49:17.941Z,63.90
2018-11-02T06:51:46.206Z,64.00
2018-11-02T06:54:14.808Z,64.00
2018-11-02T06:56:43.051Z,64.00
2018-11-02T06:59:11.392Z,64.90
2018-11-02T07:01:39.509Z,64.00
2018-11-02T07:04:07.770Z,64.50
2018-11-02T07:06:35.938Z,63.50
2018-11-02T07:09:06.500Z,63.10
2018-11-02T07:11:34.738Z,62.90
2018-11-02T07:14:03.373Z,62.80
2018-11-02T07:16:31.576Z,62.90
2018-11-02T07:18:59.738Z,62.80
2018-11-02T07:21:27.894Z,63.10
2018-11-02T07:23:56.757Z,62.80
2018-11-02T07:26:25.011Z,62.90
2018-11-02T07:28:53.177Z,62.90
2018-11-02T07:31:22.339Z,62.60
2018-11-02T07:33:50.645Z,61.80
2018-11-02T07:36:18.820Z,61.40
2018-11-02T07:39:09.677Z,61.00
2018-11-02T07:41:37.848Z,60.80
2018-11-02T07:44:06.388Z,60.60
2018-11-02T07:46:34.637Z,60.10
2018-11-02T07:49:03.944Z,59.70
2018-11-02T07:51:32.151Z,59.30
2018-11-02T07:54:00.324Z,59.30
2018-11-02T07:56:28.496Z,59.20
2018-11-02T07:58:57.396Z,58.80
2018-11-02T08:01:25.857Z,58.40
2018-11-02T08:03:53.998Z,59.40
2018-11-02T08:06:22.235Z,59.10
2018-11-02T08:08:51.012Z,58.60
2018-11-02T08:11:19.660Z,58.90
2018-11-02T08:13:47.824Z,58.00
2018-11-02T08:16:16.021Z,57.10
2018-11-02T08:18:44.321Z,56.50
2018-11-02T08:21:12.427Z,55.00
2018-11-02T08:23:40.651Z,53.10
2018-11-02T08:26:08.891Z,52.00
2018-11-02T08:28:37.108Z,50.90
2018-11-02T08:31:05.709Z,50.20
2018-11-02T08:33:33.932Z,50.00
2018-11-02T08:36:03.059Z,50.30
2018-11-02T08:38:31.272Z,50.20
2018-11-02T08:40:59.486Z,50.60
2018-11-02T08:43:27.763Z,51.40
2018-11-02T08:45:55.940Z,51.80
2018-11-02T08:48:24.111Z,52.10
2018-11-02T08:50:52.462Z,53.20
2018-11-02T08:53:20.624Z,53.10
2018-11-02T08:55:48.780Z,53.70
2018-11-02T08:58:17.169Z,54.30
2018-11-02T09:00:45.264Z,54.80
2018-11-02T09:03:13.512Z,54.70
2018-11-02T09:05:41.728Z,56.10
2018-11-02T09:08:10.154Z,54.90
2018-11-02T09:10:41.300Z,55.40
2018-11-02T09:13:09.531Z,55.70
2018-11-02T09:15:37.819Z,56.00
2018-11-02T09:18:06.144Z,56.10
2018-11-02T09:20:34.400Z,55.80
2018-11-02T09:23:02.678Z,54.90
2018-11-02T09:25:30.976Z,56.20
2018-11-02T09:27:59.419Z,56.60
2018-11-02T09:30:27.532Z,56.40
2018-11-02T09:32:55.799Z,55.70
2018-11-02T09:35:24.115Z,55.90
2018-11-02T09:37:52.912Z,55.70
2018-11-02T09:40:21.309Z,55.80
2018-11-02T09:42:49.662Z,55.50
2018-11-02T09:45:17.807Z,55.10
2018-11-02T09:47:46.079Z,54.90
2018-11-02T09:50:14.408Z,55.10
2018-11-02T09:52:42.649Z,54.40
2018-11-02T09:55:13.411Z,54.30
2018-11-02T09:57:42.526Z,50.40
2018-11-02T10:00:11.804Z,50.50
2018-11-02T10:02:40.310Z,49.60
2018-11-02T10:05:09.629Z,48.80
2018-11-02T10:07:38.799Z,46.70
2018-11-02T10:10:08.947Z,45.10
2018-11-02T10:12:37.356Z,43.30
2018-11-02T10:15:08.528Z,41.70
2018-11-02T10:17:36.840Z,40.90
2018-11-02T10:20:06.232Z,36.10
2018-11-02T10:22:34.523Z,37.50
2018-11-02T10:25:02.778Z,36.10
2018-11-02T10:27:31.216Z,33.60
2018-11-02T10:30:00.756Z,29.70
2018-11-02T10:32:29.200Z,27.80
2018-11-02T10:34:58.470Z,24.10
2018-11-02T10:37:26.812Z,22.80
2018-11-02T10:39:55.175Z,20.90
2018-11-02T10:42:23.610Z,20.20
2018-11-02T10:44:52.092Z,20.10
2018-11-02T10:47:20.750Z,18.40
2018-11-02T10:49:48.975Z,16.40
2018-11-02T10:52:17.287Z,17.80
2018-11-02T10:54:45.678Z,20.30
2018-11-02T10:57:13.843Z,22.50
2018-11-02T10:59:42.172Z,25.00
2018-11-02T11:02:16.099Z,26.60
2018-11-02T11:04:44.341Z,28.60
2018-11-02T11:07:12.649Z,29.30
2018-11-02T11:09:40.932Z,31.40
2018-11-02T11:12:09.365Z,33.30
2018-11-02T11:14:37.837Z,33.90
2018-11-02T11:17:06.185Z,35.60
2018-11-02T11:19:34.425Z,36.50
2018-11-02T11:22:03.018Z,37.70
2018-11-02T11:24:31.308Z,37.30
2018-11-02T11:26:59.610Z,36.50
2018-11-02T11:29:27.898Z,37.80
2018-11-02T11:31:56.151Z,37.70
2018-11-02T11:34:24.417Z,39.80
2018-11-02T11:36:52.742Z,39.70
2018-11-02T11:39:20.986Z,39.50
2018-11-02T11:41:49.240Z,40.40
2018-11-02T11:44:17.573Z,40.60
2018-11-02T11:46:45.927Z,41.70
2018-11-02T11:49:14.303Z,41.30
2018-11-02T11:51:42.520Z,40.80
2018-11-02T11:54:10.848Z,42.10
2018-11-02T11:56:39.129Z,42.30
2018-11-02T11:59:08.083Z,40.10
2018-11-02T12:01:36.356Z,40.40
2018-11-02T12:04:05.185Z,40.70
2018-11-02T12:06:33.834Z,41.40
2018-11-02T12:09:02.217Z,40.00
2018-11-02T12:11:30.456Z,39.70
2018-11-02T12:13:59.123Z,40.90
2018-11-02T12:16:27.422Z,40.50
2018-11-02T12:18:55.780Z,40.70
2018-11-02T12:21:24.160Z,40.70
2018-11-02T12:23:52.395Z,40.90
2018-11-02T12:26:20.656Z,40.50
2018-11-02T12:28:48.981Z,40.90
2018-11-02T12:31:17.175Z,41.30
2018-11-02T12:33:45.728Z,41.50
2018-11-02T12:36:14.010Z,41.60
2018-11-02T12:38:42.220Z,41.90
2018-11-02T12:41:10.452Z,41.60
2018-11-02T12:43:38.931Z,40.40
2018-11-02T12:46:07.067Z,40.30
2018-11-02T12:48:35.434Z,40.70
2018-11-02T12:51:03.639Z,39.70
2018-11-02T12:53:31.873Z,41.40
2018-11-02T12:56:00.098Z,42.40
2018-11-02T12:58:28.385Z,41.10
2018-11-02T13:00:56.615Z,40.90
2018-11-02T13:03:24.903Z,40.60
2018-11-02T13:05:53.225Z,39.90
2018-11-02T13:08:21.496Z,39.80
2018-11-02T13:10:49.994Z,40.20
2018-11-02T13:13:18.273Z,40.80
2018-11-02T13:15:47.543Z,41.30
2018-11-02T13:18:19.252Z,40.50
2018-11-02T13:20:47.644Z,40.00
2018-11-02T13:23:15.942Z,40.50
2018-11-02T13:25:44.314Z,39.50
2018-11-02T13:28:12.408Z,39.60
2018-11-02T13:30:41.052Z,38.80
2018-11-02T13:33:09.147Z,39.60
2018-11-02T13:35:37.375Z,39.80
2018-11-02T13:38:05.733Z,40.30
2018-11-02T13:40:33.944Z,40.40
2018-11-02T13:43:02.324Z,40.30
2018-11-02T13:45:30.460Z,40.70
2018-11-02T13:47:58.732Z,41.20
2018-11-02T13:50:27.142Z,41.80
2018-11-02T13:52:55.259Z,41.30
2018-11-02T13:55:23.519Z,40.80
2018-11-02T13:57:51.780Z,41.20
2018-11-02T14:00:20.005Z,42.00
2018-11-02T14:02:48.260Z,41.90
2018-11-02T14:05:17.135Z,41.80
2018-11-02T14:07:45.379Z,40.20
2018-11-02T14:10:13.744Z,39.80
2018-11-02T14:12:42.176Z,40.30
2018-11-02T14:15:13.673Z,40.00
2018-11-02T14:17:42.401Z,38.70
2018-11-02T14:20:11.633Z,40.30
2018-11-02T14:22:40.099Z,40.30
2018-11-02T14:25:11.425Z,41.00
2018-11-02T14:27:39.698Z,41.10
2018-11-02T14:30:10.975Z,41.10
2018-11-02T14:32:39.252Z,41.90
2018-11-02T14:35:08.053Z,41.10
2018-11-02T14:37:36.626Z,41.30
2018-11-02T14:40:06.408Z,42.30
2018-11-02T14:42:34.639Z,43.00
2018-11-02T14:45:03.097Z,43.40
2018-11-02T14:47:31.756Z,43.00
2018-11-02T14:50:00.044Z,43.30
2018-11-02T14:52:28.311Z,44.60
2018-11-02T14:54:56.685Z,43.60
2018-11-02T14:57:24.946Z,43.30
2018-11-02T14:59:53.276Z,43.80
2018-11-02T15:02:21.497Z,43.30
2018-11-02T15:04:49.760Z,44.30
2018-11-02T15:07:17.982Z,45.10
2018-11-02T15:09:46.239Z,45.70
2018-11-02T15:12:14.600Z,46.00
2018-11-02T15:14:42.856Z,46.10
2018-11-02T15:17:11.143Z,46.30
2018-11-02T15:19:39.407Z,46.40
2018-11-02T15:22:07.753Z,46.00
2018-11-02T15:24:36.025Z,45.60
2018-11-02T15:27:04.688Z,45.70
2018-11-02T15:29:32.973Z,45.30
2018-11-02T15:32:01.767Z,45.70
2018-11-02T15:34:30.017Z,45.70
2018-11-02T15:36:58.283Z,45.70
2018-11-02T15:39:26.572Z,45.60
2018-11-02T15:41:54.841Z,46.40
2018-11-02T15:44:23.388Z,47.30
2018-11-02T15:46:51.640Z,47.20
2018-11-02T15:49:20.189Z,47.10
2018-11-02T15:51:48.456Z,47.30
2018-11-02T15:54:16.808Z,47.40
2018-11-02T15:56:45.371Z,47.00
2018-11-02T15:59:13.611Z,48.00
2018-11-02T16:01:41.896Z,48.10
2018-11-02T16:04:10.147Z,47.20
2018-11-02T16:06:38.519Z,48.30
2018-11-02T16:09:11.693Z,48.60
2018-11-02T16:11:39.962Z,48.70
2018-11-02T16:14:08.285Z,48.60
2018-11-02T16:16:36.594Z,49.10
2018-11-02T16:19:04.922Z,49.50
2018-11-02T16:21:33.433Z,50.20
2018-11-02T16:24:02.077Z,49.50
2018-11-02T16:26:30.308Z,49.60
2018-11-02T16:28:58.612Z,50.00
2018-11-02T16:31:26.848Z,50.10
2018-11-02T16:33:55.125Z,50.70
2018-11-02T16:36:23.716Z,50.50
2018-11-02T16:38:51.960Z,50.60
2018-11-02T16:41:20.233Z,50.70
2018-11-02T16:43:48.635Z,50.70
2018-11-02T16:46:16.741Z,50.80
2018-11-02T16:48:45.037Z,51.10
2018-11-02T16:51:13.292Z,51.40
2018-11-02T16:53:41.512Z,51.40
2018-11-02T16:56:10.052Z,50.90
2018-11-02T16:58:38.329Z,50.70
2018-11-02T17:01:06.703Z,50.70
2018-11-02T17:03:35.056Z,50.80
2018-11-02T17:06:04.667Z,50.80
2018-11-02T17:08:32.924Z,50.60
2018-11-02T17:11:01.525Z,50.00
2018-11-02T17:13:29.800Z,50.00
2018-11-02T17:15:58.157Z,50.60
2018-11-02T17:18:26.556Z,50.60
2018-11-02T17:20:54.849Z,51.50
2018-11-02T17:23:23.433Z,51.70
2018-11-02T17:25:51.748Z,51.70
2018-11-02T17:28:20.010Z,51.30
2018-11-02T17:30:48.300Z,50.70
2018-11-02T17:33:16.609Z,50.50
2018-11-02T17:35:44.911Z,50.80
2018-11-02T17:38:13.144Z,50.90
2018-11-02T17:40:41.385Z,51.20
2018-11-02T17:43:09.624Z,51.40
2018-11-02T17:45:37.888Z,51.50
2018-11-02T17:48:06.359Z,50.50
2018-11-02T17:50:34.551Z,50.80
2018-11-02T17:53:02.859Z,51.20
2018-11-02T17:55:31.239Z,51.30
2018-11-02T17:57:59.532Z,51.20
2018-11-02T18:00:27.812Z,51.10
2018-11-02T18:02:56.342Z,50.60
2018-11-02T18:05:24.581Z,50.60
2018-11-02T18:07:52.827Z,51.00
2018-11-02T18:10:21.132Z,51.20
2018-11-02T18:12:49.394Z,50.90
2018-11-02T18:15:17.636Z,50.50
2018-11-02T18:17:45.929Z,50.50
2018-11-02T18:20:15.151Z,50.60
2018-11-02T18:22:43.482Z,51.60
2018-11-02T18:25:12.675Z,52.30
2018-11-02T18:27:41.512Z,52.60
2018-11-02T18:30:11.360Z,53.40
2018-11-02T18:32:39.663Z,53.80
2018-11-02T18:35:08.618Z,54.00
2018-11-02T18:37:37.773Z,54.20
2018-11-02T18:40:08.967Z,54.60
2018-11-02T18:42:37.364Z,54.90
2018-11-02T18:45:08.543Z,54.90
2018-11-02T18:47:42.988Z,54.90
2018-11-02T18:50:11.839Z,54.90
2018-11-02T18:52:40.973Z,54.90
2018-11-02T18:55:09.413Z,54.90
2018-11-02T18:57:38.171Z,55.20
2018-11-02T19:00:08.154Z,55.30
2018-11-02T19:02:36.464Z,55.50
2018-11-02T19:05:09.257Z,55.60
2018-11-02T19:07:37.713Z,55.80
2018-11-02T19:10:06.733Z,56.40
2018-11-02T19:12:35.137Z,56.60
2018-11-02T19:15:03.568Z,56.80
2018-11-02T19:17:31.789Z,56.10
2018-11-02T19:20:00.140Z,55.50
2018-11-02T19:22:28.334Z,55.70
2018-11-02T19:24:56.911Z,55.70
2018-11-02T19:27:25.269Z,54.60
2018-11-02T19:29:53.475Z,55.00
2018-11-02T19:32:21.851Z,54.90
2018-11-02T19:34:50.696Z,54.90
2018-11-02T19:37:18.772Z,54.90
2018-11-02T19:39:46.988Z,55.70
2018-11-02T19:42:15.255Z,55.70
2018-11-02T19:44:43.514Z,55.20
2018-11-02T19:47:11.798Z,54.90
2018-11-02T19:49:40.080Z,55.20
2018-11-02T19:52:08.372Z,55.30
2018-11-02T19:54:36.675Z,54.90
2018-11-02T19:57:05.082Z,55.00
2018-11-02T19:59:33.355Z,54.90
2018-11-02T20:02:01.689Z,54.90
2018-11-02T20:04:29.963Z,55.50
2018-11-02T20:06:58.233Z,55.70
2018-11-02T20:09:26.598Z,55.80
2018-11-02T20:11:55.050Z,55.50
2018-11-02T20:14:23.288Z,55.60
2018-11-02T20:16:51.524Z,56.10
2018-11-02T20:19:19.876Z,55.90
2018-11-02T20:21:48.123Z,56.00
2018-11-02T20:24:16.433Z,55.80
2018-11-02T20:26:44.792Z,55.30
2018-11-02T20:29:13.036Z,55.70
2018-11-02T20:31:41.369Z,55.20
2018-11-02T20:34:09.709Z,56.10
2018-11-02T20:36:37.986Z,56.60
2018-11-02T20:39:09.866Z,56.70
2018-11-02T20:41:38.071Z,57.40
2018-11-02T20:44:06.484Z,57.20
2018-11-02T20:46:35.423Z,57.30
2018-11-02T20:49:03.982Z,57.50
2018-11-02T20:51:32.294Z,57.60
2018-11-02T20:54:00.861Z,57.90
2018-11-02T20:56:29.290Z,57.90
2018-11-02T20:58:57.724Z,58.00
2018-11-02T21:01:26.021Z,57.70
2018-11-02T21:03:55.051Z,57.90
2018-11-02T21:06:23.474Z,57.30
2018-11-02T21:08:52.038Z,57.50
2018-11-02T21:11:20.324Z,57.50
2018-11-02T21:13:48.609Z,58.30
2018-11-02T21:16:16.921Z,58.60
2018-11-02T21:18:45.530Z,58.70
2018-11-02T21:21:13.945Z,58.70
2018-11-02T21:23:42.757Z,59.10
2018-11-02T21:26:11.114Z,59.30
2018-11-02T21:28:40.164Z,59.90
2018-11-02T21:31:08.428Z,59.70
2018-11-02T21:33:36.857Z,59.50
2018-11-02T21:36:05.057Z,59.90
2018-11-02T21:38:34.621Z,59.70
2018-11-02T21:41:02.847Z,60.30
2018-11-02T21:43:31.468Z,59.70
2018-11-02T21:45:59.831Z,59.60
2018-11-02T21:48:28.189Z,59.10
2018-11-02T21:50:56.499Z,59.20
2018-11-02T21:53:24.794Z,58.60
2018-11-02T21:55:53.170Z,59.10
2018-11-02T21:58:22.640Z,59.50
2018-11-02T22:00:50.805Z,60.10
2018-11-02T22:03:19.132Z,60.20
2018-11-02T22:05:47.462Z,60.40
2018-11-02T22:08:15.703Z,60.90
2018-11-02T22:10:43.974Z,60.90
2018-11-02T22:13:12.244Z,60.70
2018-11-02T22:15:40.560Z,60.50
2018-11-02T22:18:09.110Z,60.20
2018-11-02T22:20:37.363Z,60.40
2018-11-02T22:23:05.742Z,60.60
2018-11-02T22:25:34.033Z,60.80
2018-11-02T22:28:02.278Z,60.90
2018-11-02T22:30:30.550Z,61.00
2018-11-02T22:32:58.787Z,60.90
2018-11-02T22:35:27.007Z,61.40
2018-11-02T22:37:55.245Z,61.50
2018-11-02T22:40:23.489Z,62.10
2018-11-02T22:42:52.012Z,61.60
2018-11-02T22:45:20.255Z,61.70
2018-11-02T22:47:54.447Z,62.20
2018-11-02T22:50:22.713Z,61.10
2018-11-02T22:52:50.968Z,61.20
2018-11-02T22:55:19.482Z,61.60
2018-11-02T22:57:47.696Z,61.50
2018-11-02T23:00:17.328Z,61.30
2018-11-02T23:02:46.774Z,61.20
2018-11-02T23:05:15.125Z,61.50
2018-11-02T23:07:43.940Z,61.20
2018-11-02T23:10:12.296Z,61.40
2018-11-02T23:12:41.180Z,61.70
2018-11-02T23:15:10.348Z,61.80
2018-11-02T23:17:38.681Z,63.00
2018-11-02T23:20:10.377Z,62.80
2018-11-02T23:22:38.600Z,63.40
2018-11-02T23:25:08.519Z,63.90
2018-11-02T23:27:36.846Z,63.80
2018-11-02T23:30:07.114Z,63.90
2018-11-02T23:32:35.335Z,63.30
2018-11-02T23:35:03.612Z,63.60
2018-11-02T23:37:32.168Z,63.20
2018-11-02T23:40:00.437Z,63.00
2018-11-02T23:42:29.026Z,63.40
2018-11-02T23:44:57.279Z,63.80
2018-11-02T23:47:25.449Z,63.90
2018-11-02T23:49:53.965Z,63.90
2018-11-02T23:52:22.824Z,63.90
2018-11-02T23:54:51.129Z,63.90
2018-11-02T23:57:19.429Z,64.50
2018-11-02T23:59:47.661Z,65.20
